Time;durP1;ratioP1;P1;durP2;ratioP2;P2;SDS_P1;SDS_P2;PMS_P1;PMS_P2;Temp;Humidity;BMP_temperature;BMP_pressure;BME280_temperature;BME280_humidity;BME280_pressure;Samples;Min_cycle;Max_cycle;Signal;HPM_P1;HPM_P2
2022/03/06 00:01:48;;;;;;;;;;;;;;;4.10;46.47;101770.66;5024172;28;20021;-76
2022/03/06 00:04:13;;;;;;;;;;;;;;;4.20;46.23;101769.09;5029310;28;19925;-76
2022/03/06 00:06:38;;;;;;;;;;;;;;;4.07;46.42;101777.41;5043723;28;19967;-76
2022/03/06 00:09:04;;;;;;;;;;;;;;;4.07;46.48;101777.41;5046290;28;19921;-76
2022/03/06 00:11:29;;;;;;;;;;;;;;;4.32;46.71;101772.81;5026013;28;20334;-76
2022/03/06 00:13:54;;;;;;;;;;;;;;;4.36;46.35;101776.31;5033093;28;19928;-76
2022/03/06 00:16:19;;;;;;;;;;;;;;;4.38;45.74;101771.22;5031907;28;19925;-76
2022/03/06 00:18:45;;;;;;;;;;;;;;;3.93;46.96;101776.22;5037255;28;19921;-76
2022/03/06 00:21:11;;;;;;;;;;;;;;;3.57;46.64;101777.13;5025854;28;20020;-76
2022/03/06 00:23:37;;;;;;;;;;;;;;;3.97;47.40;101776.31;5025861;28;19921;-77
2022/03/06 00:26:02;;;;;;;;;;;;;;;3.46;47.58;101775.09;5027040;28;20012;-76
2022/03/06 00:28:27;;;;;;;;;;;;;;;3.95;46.99;101771.97;5042360;28;19917;-76
2022/03/06 00:30:53;;;;;;;;;;;;;;;4.21;46.02;101769.16;5026830;28;20016;-76
2022/03/06 00:33:18;;;;;;;;;;;;;;;3.71;46.74;101772.28;5031891;28;20614;-76
2022/03/06 00:35:43;;;;;;;;;;;;;;;3.89;46.84;101772.72;5028205;28;19931;-76
2022/03/06 00:38:09;;;;;;;;;;;;;;;3.75;47.13;101772.38;5026159;28;19917;-76
2022/03/06 00:40:34;;;;;;;;;;;;;;;4.01;47.19;101775.56;5028064;28;19921;-76
2022/03/06 00:42:59;;;;;;;;;;;;;;;3.84;47.36;101776.91;5028183;28;19921;-76
2022/03/06 00:45:25;;;;;;;;;;;;;;;3.58;46.83;101776.28;5023564;28;19928;-76
2022/03/06 00:47:50;;;;;;;;;;;;;;;3.74;47.41;101780.06;5026544;28;20411;-76
2022/03/06 00:50:15;;;;;;;;;;;;;;;3.60;46.91;101789.19;5028043;28;20004;-76
2022/03/06 00:52:41;;;;;;;;;;;;;;;3.75;47.48;101780.09;5021148;28;20641;-76
2022/03/06 00:55:07;;;;;;;;;;;;;;;3.81;46.46;101780.22;5027335;28;20442;-76
2022/03/06 00:57:32;;;;;;;;;;;;;;;3.68;46.14;101777.38;5028937;28;19928;-76
2022/03/06 00:59:57;;;;;;;;;;;;;;;3.95;46.27;101789.97;5044442;28;19921;-76
2022/03/06 01:02:23;;;;;;;;;;;;;;;3.89;46.75;101797.53;5027530;28;19928;-77
2022/03/06 01:04:48;;;;;;;;;;;;;;;3.86;47.27;101792.34;5026921;28;19921;-77
2022/03/06 01:07:14;;;;;;;;;;;;;;;4.01;45.83;101790.09;5028538;28;19917;-76
2022/03/06 01:09:39;;;;;;;;;;;;;;;3.65;46.54;101791.00;5026596;28;19928;-76
2022/03/06 01:12:05;;;;;;;;;;;;;;;4.06;46.10;101791.09;5043037;28;19925;-77
2022/03/06 01:14:30;;;;;;;;;;;;;;;3.85;45.58;101790.59;5026506;28;20270;-77
2022/03/06 01:16:56;;;;;;;;;;;;;;;3.71;46.21;101790.28;5027022;28;19917;-77
2022/03/06 01:19:21;;;;;;;;;;;;;;;3.70;46.90;101801.38;5028969;28;19917;-76
2022/03/06 01:21:46;;;;;;;;;;;;;;;3.80;46.96;101795.63;5029077;28;20358;-76
2022/03/06 01:24:12;;;;;;;;;;;;;;;3.61;47.94;101803.72;5026290;28;20016;-77
2022/03/06 01:26:37;;;;;;;;;;;;;;;3.29;46.91;101800.41;5031215;28;19928;-76
2022/03/06 01:29:02;;;;;;;;;;;;;;;3.38;47.97;101808.31;5027556;28;20011;-76
2022/03/06 01:31:28;;;;;;;;;;;;;;;3.74;46.96;101806.66;5033021;28;20008;-77
2022/03/06 01:33:53;;;;;;;;;;;;;;;3.49;47.57;101808.56;5032037;28;19928;-78
2022/03/06 01:36:18;;;;;;;;;;;;;;;3.80;47.10;101811.06;5047402;28;19929;-79
2022/03/06 01:38:44;;;;;;;;;;;;;;;3.92;46.95;101807.88;5030055;28;19921;-79
2022/03/06 01:41:09;;;;;;;;;;;;;;;3.97;46.80;101804.59;5029364;28;19971;-79
2022/03/06 01:43:34;;;;;;;;;;;;;;;4.09;46.32;101804.91;5032654;28;19925;-79
2022/03/06 01:46:00;;;;;;;;;;;;;;;3.93;45.78;101813.06;5036234;28;20016;-79
2022/03/06 01:48:25;;;;;;;;;;;;;;;3.72;45.35;101810.84;5032877;28;19928;-79
2022/03/06 01:50:50;;;;;;;;;;;;;;;3.88;46.35;101809.53;5026839;28;19925;-79
2022/03/06 01:53:16;;;;;;;;;;;;;;;4.00;46.49;101801.22;5026447;28;19929;-78
2022/03/06 01:55:42;;;;;;;;;;;;;;;3.79;46.59;101804.16;5030569;28;19975;-79
2022/03/06 01:58:09;;;;;;;;;;;;;;;4.00;45.90;101807.22;5032364;28;19921;-79
2022/03/06 02:00:36;;;;;;;;;;;;;;;3.89;45.53;101800.97;5029017;28;19925;-79
2022/03/06 02:03:02;;;;;;;;;;;;;;;3.91;45.76;101806.16;5031556;28;19972;-79
2022/03/06 02:05:27;;;;;;;;;;;;;;;3.88;45.94;101809.53;5028456;28;19957;-79
2022/03/06 02:07:53;;;;;;;;;;;;;;;3.81;45.72;101802.53;5031780;28;20380;-79
2022/03/06 02:10:18;;;;;;;;;;;;;;;4.03;45.63;101799.59;5044945;28;19964;-79
2022/03/06 02:12:44;;;;;;;;;;;;;;;3.76;46.26;101797.25;5027923;28;19929;-79
2022/03/06 02:15:11;;;;;;;;;;;;;;;3.93;46.73;101805.34;5029165;28;19921;-79
2022/03/06 02:17:38;;;;;;;;;;;;;;;3.80;45.86;101800.78;5026021;28;19921;-79
2022/03/06 02:20:09;;;;;;;;;;;;;;;4.01;46.14;101810.66;5031236;28;19924;-79
2022/03/06 02:22:36;;;;;;;;;;;;;;;4.01;45.44;101802.97;5027238;28;19924;-79
2022/03/06 02:25:03;;;;;;;;;;;;;;;3.92;45.59;101806.19;5033447;28;19940;-79
2022/03/06 02:27:29;;;;;;;;;;;;;;;3.76;46.29;101809.22;5027803;28;19921;-79
2022/03/06 02:29:54;;;;;;;;;;;;;;;3.89;45.83;101805.25;5006431;28;19940;-79
2022/03/06 02:32:21;;;;;;;;;;;;;;;3.97;46.38;101803.72;5029974;28;19957;-79
2022/03/06 02:34:47;;;;;;;;;;;;;;;4.01;45.81;101802.97;5030488;28;19921;-79
2022/03/06 02:37:13;;;;;;;;;;;;;;;4.03;45.71;101809.88;5028076;28;19928;-79
2022/03/06 02:39:39;;;;;;;;;;;;;;;3.85;45.58;101804.31;5048292;28;19928;-79
2022/03/06 02:42:04;;;;;;;;;;;;;;;3.80;45.78;101804.22;5043227;28;19929;-79
2022/03/06 02:44:30;;;;;;;;;;;;;;;3.96;46.28;101805.41;5028244;28;19959;-79
2022/03/06 02:46:56;;;;;;;;;;;;;;;3.80;45.78;101808.47;5035567;28;19956;-79
2022/03/06 02:49:21;;;;;;;;;;;;;;;3.61;46.40;101811.44;5044814;28;19920;-79
2022/03/06 02:51:47;;;;;;;;;;;;;;;3.85;45.74;101804.31;5048303;28;20306;-79
2022/03/06 02:54:14;;;;;;;;;;;;;;;3.83;45.79;101803.41;5026624;28;20275;-78
2022/03/06 02:56:40;;;;;;;;;;;;;;;3.70;46.13;101804.81;5029562;28;19929;-79
2022/03/06 02:59:07;;;;;;;;;;;;;;;3.64;44.96;101804.69;5026953;28;19979;-79
2022/03/06 03:01:37;;;;;;;;;;;;;;;3.60;46.47;101817.44;5020998;28;19921;-79
2022/03/06 03:04:04;;;;;;;;;;;;;;;3.67;46.03;101814.16;5029705;28;19925;-79
2022/03/06 03:06:30;;;;;;;;;;;;;;;3.25;47.07;101813.97;5032348;28;19924;-79
2022/03/06 03:08:55;;;;;;;;;;;;;;;3.17;48.39;101818.06;5023206;28;20290;-79
2022/03/06 03:11:21;;;;;;;;;;;;;;;3.29;47.02;101814.94;5024333;28;19929;-79
2022/03/06 03:13:46;;;;;;;;;;;;;;;3.04;47.60;101808.31;5027341;28;19926;-79
2022/03/06 03:16:11;;;;;;;;;;;;;;;3.31;47.25;101811.56;5025355;28;20401;-79
2022/03/06 03:18:37;;;;;;;;;;;;;;;3.05;47.92;101816.03;5029788;28;20011;-79
2022/03/06 03:21:02;;;;;;;;;;;;;;;3.19;47.46;101812.13;5030074;28;20316;-79
2022/03/06 03:23:28;;;;;;;;;;;;;;;3.39;47.89;101817.78;5042885;28;19960;-79
2022/03/06 03:25:53;;;;;;;;;;;;;;;3.11;47.60;101815.31;5028115;28;19944;-79
2022/03/06 03:28:18;;;;;;;;;;;;;;;3.33;46.48;101809.06;5030562;28;20385;-79
2022/03/06 03:30:43;;;;;;;;;;;;;;;3.56;46.74;101815.63;5029007;28;19928;-79
2022/03/06 03:33:09;;;;;;;;;;;;;;;3.21;47.47;101825.00;5026955;28;19980;-79
2022/03/06 03:35:34;;;;;;;;;;;;;;;3.34;48.41;101826.19;5043910;28;19986;-79
2022/03/06 03:37:59;;;;;;;;;;;;;;;3.59;48.21;101831.97;5026591;28;19921;-79
2022/03/06 03:40:25;;;;;;;;;;;;;;;3.43;47.41;101823.84;5025136;28;19917;-76
2022/03/06 03:42:50;;;;;;;;;;;;;;;3.47;48.04;101830.78;5026071;28;20010;-76
2022/03/06 03:45:16;;;;;;;;;;;;;;;3.37;48.36;101837.41;5026128;28;19921;-76
2022/03/06 03:47:41;;;;;;;;;;;;;;;3.48;48.57;101829.97;5030343;28;19925;-76
2022/03/06 03:50:07;;;;;;;;;;;;;;;3.42;48.06;101834.97;5023036;28;20345;-76
2022/03/06 03:52:32;;;;;;;;;;;;;;;3.50;47.77;101836.88;5031911;28;19932;-76
2022/03/06 03:54:57;;;;;;;;;;;;;;;3.57;47.17;101837.91;5029739;28;20385;-76
2022/03/06 03:57:25;;;;;;;;;;;;;;;3.54;46.86;101831.00;5023913;28;19921;-76
2022/03/06 03:59:54;;;;;;;;;;;;;;;3.49;48.13;101834.25;5025680;28;19928;-77
2022/03/06 04:02:19;;;;;;;;;;;;;;;3.68;48.03;101834.75;5031428;28;19937;-76
2022/03/06 04:04:44;;;;;;;;;;;;;;;3.87;47.52;101833.50;5025399;28;19921;-76
2022/03/06 04:07:09;;;;;;;;;;;;;;;3.75;47.29;101825.50;5032106;28;19921;-76
2022/03/06 04:09:35;;;;;;;;;;;;;;;3.36;48.52;101827.97;5030180;28;20385;-76
2022/03/06 04:12:00;;;;;;;;;;;;;;;3.44;49.22;101841.88;5029752;28;19929;-76
2022/03/06 04:14:25;;;;;;;;;;;;;;;3.74;48.57;101837.47;5023662;28;19921;-76
2022/03/06 04:16:51;;;;;;;;;;;;;;;3.75;46.97;101839.19;5041612;28;19921;-76
2022/03/06 04:19:16;;;;;;;;;;;;;;;3.28;49.25;101847.44;5027609;28;19909;-76
2022/03/06 04:21:42;;;;;;;;;;;;;;;3.72;48.08;101848.56;5025703;28;19927;-76
2022/03/06 04:24:07;;;;;;;;;;;;;;;3.40;48.92;101844.31;5028970;28;19921;-76
2022/03/06 04:26:33;;;;;;;;;;;;;;;3.57;47.79;101853.31;5016225;28;20390;-76
2022/03/06 04:28:58;;;;;;;;;;;;;;;3.63;47.94;101849.19;5032590;28;20421;-76
2022/03/06 04:31:24;;;;;;;;;;;;;;;3.82;47.98;101860.78;5031389;28;19927;-76
2022/03/06 04:33:49;;;;;;;;;;;;;;;3.60;47.92;101861.97;5020935;28;19925;-76
2022/03/06 04:36:16;;;;;;;;;;;;;;;3.81;47.73;101867.63;5025061;28;20468;-76
2022/03/06 04:38:41;;;;;;;;;;;;;;;3.66;49.13;101874.94;5024439;28;20293;-76
2022/03/06 04:41:07;;;;;;;;;;;;;;;3.89;48.20;101866.94;5044204;28;20335;-79
2022/03/06 04:43:32;;;;;;;;;;;;;;;3.88;48.45;101871.22;5034942;28;20674;-78
2022/03/06 04:45:57;;;;;;;;;;;;;;;3.72;47.82;101875.09;5025562;28;19931;-78
2022/03/06 04:48:23;;;;;;;;;;;;;;;3.71;48.59;101873.38;5027842;28;19963;-79
2022/03/06 04:50:48;;;;;;;;;;;;;;;3.65;49.43;101882.63;5025249;28;20421;-79
2022/03/06 04:53:14;;;;;;;;;;;;;;;3.90;48.25;101877.25;5026342;28;19925;-79
2022/03/06 04:55:39;;;;;;;;;;;;;;;3.70;48.70;101869.06;5026577;28;19971;-79
2022/03/06 04:58:04;;;;;;;;;;;;;;;3.67;47.94;101873.25;5019751;28;19975;-79
2022/03/06 05:00:30;;;;;;;;;;;;;;;3.73;48.72;101886.25;5025625;28;19943;-79
2022/03/06 05:02:55;;;;;;;;;;;;;;;3.79;48.50;101881.25;5033770;28;19947;-79
2022/03/06 05:05:20;;;;;;;;;;;;;;;3.90;47.32;101877.25;5043118;28;20418;-79
2022/03/06 05:07:46;;;;;;;;;;;;;;;3.23;49.20;101882.41;5023713;28;20277;-79
2022/03/06 05:10:11;;;;;;;;;;;;;;;3.74;47.75;101877.72;5029202;28;20297;-79
2022/03/06 05:12:37;;;;;;;;;;;;;;;3.73;47.99;101883.69;5032845;28;19931;-77
2022/03/06 05:15:03;;;;;;;;;;;;;;;3.90;47.05;101878.97;5026763;28;20293;-77
2022/03/06 05:17:28;;;;;;;;;;;;;;;3.72;47.59;101881.97;5026405;28;19921;-77
2022/03/06 05:19:53;;;;;;;;;;;;;;;3.86;47.65;101880.59;5024434;28;19921;-77
2022/03/06 05:22:19;;;;;;;;;;;;;;;3.91;47.18;101880.69;5026648;28;19929;-77
2022/03/06 05:24:44;;;;;;;;;;;;;;;3.98;46.85;101882.59;5025139;28;20390;-77
2022/03/06 05:27:10;;;;;;;;;;;;;;;3.78;47.25;101874.41;5041517;28;20011;-78
2022/03/06 05:29:35;;;;;;;;;;;;;;;3.52;48.65;101872.88;5040154;28;19922;-79
2022/03/06 05:32:00;;;;;;;;;;;;;;;3.82;47.69;101878.78;5028980;28;19928;-78
2022/03/06 05:34:26;;;;;;;;;;;;;;;3.76;46.91;101887.19;5031862;28;19983;-79
2022/03/06 05:36:51;;;;;;;;;;;;;;;4.01;46.82;101888.66;5020753;28;19925;-79
2022/03/06 05:39:16;;;;;;;;;;;;;;;3.74;47.05;101886.31;5023398;28;19929;-79
2022/03/06 05:41:41;;;;;;;;;;;;;;;3.89;46.68;101882.38;5025458;28;19936;-79
2022/03/06 05:44:07;;;;;;;;;;;;;;;3.69;46.54;101884.47;5028310;28;19935;-79
2022/03/06 05:46:32;;;;;;;;;;;;;;;3.78;47.33;101884.69;5028769;28;19917;-79
2022/03/06 05:48:58;;;;;;;;;;;;;;;3.75;47.81;101887.19;5027009;28;19956;-79
2022/03/06 05:51:23;;;;;;;;;;;;;;;3.61;48.52;101903.94;5030465;28;19921;-79
2022/03/06 05:53:48;;;;;;;;;;;;;;;3.70;48.00;101892.19;5030757;28;19971;-79
2022/03/06 05:56:14;;;;;;;;;;;;;;;3.72;48.74;101900.78;5024404;28;19928;-79
2022/03/06 05:58:39;;;;;;;;;;;;;;;3.43;48.49;101906.03;5042016;28;19921;-79
2022/03/06 06:01:04;;;;;;;;;;;;;;;3.53;49.53;101903.75;5023182;28;19925;-79
2022/03/06 06:03:29;;;;;;;;;;;;;;;3.67;48.75;101904.97;5043691;28;19928;-79
2022/03/06 06:05:55;;;;;;;;;;;;;;;3.71;49.38;101908.47;5023989;28;20004;-79
2022/03/06 06:08:20;;;;;;;;;;;;;;;3.75;48.27;101900.03;5023694;28;19921;-79
2022/03/06 06:10:45;;;;;;;;;;;;;;;3.71;49.29;101908.47;5027608;28;20028;-76
2022/03/06 06:13:14;;;;;;;;;;;;;;;3.83;48.79;101915.63;5035491;28;19937;-79
2022/03/06 06:15:40;;;;;;;;;;;;;;;3.87;48.04;101908.03;5031468;28;19932;-79
2022/03/06 06:18:05;;;;;;;;;;;;;;;3.73;48.37;101917.09;5030306;28;19917;-79
2022/03/06 06:20:31;;;;;;;;;;;;;;;3.92;47.81;101919.28;5027421;28;19936;-78
2022/03/06 06:22:57;;;;;;;;;;;;;;;3.73;48.79;101937.66;5029685;28;19928;-79
2022/03/06 06:25:22;;;;;;;;;;;;;;;3.91;48.91;101925.25;5032970;28;20313;-79
2022/03/06 06:27:48;;;;;;;;;;;;;;;3.66;48.11;101926.34;5035146;28;19921;-79
2022/03/06 06:30:15;;;;;;;;;;;;;;;3.21;49.49;101927.72;5030378;28;19928;-79
2022/03/06 06:32:40;;;;;;;;;;;;;;;3.73;49.28;101938.53;5029262;28;19931;-78
2022/03/06 06:35:05;;;;;;;;;;;;;;;3.93;49.19;101948.44;5030805;28;19929;-79
2022/03/06 06:37:31;;;;;;;;;;;;;;;3.88;48.76;101945.75;5031705;28;19929;-79
2022/03/06 06:39:56;;;;;;;;;;;;;;;3.94;48.46;101947.59;5028699;28;19921;-79
2022/03/06 06:42:22;;;;;;;;;;;;;;;3.97;48.23;101952.81;5027359;28;19967;-79
2022/03/06 06:44:47;;;;;;;;;;;;;;;3.63;49.49;101953.69;5030798;28;20301;-79
2022/03/06 06:47:13;;;;;;;;;;;;;;;3.71;50.01;101958.19;5029549;28;19929;-79
2022/03/06 06:49:38;;;;;;;;;;;;;;;3.86;48.48;101964.53;5028781;28;20004;-76
2022/03/06 06:52:04;;;;;;;;;;;;;;;3.73;49.22;101968.50;5033721;28;20369;-77
2022/03/06 06:54:29;;;;;;;;;;;;;;;3.97;48.91;101965.66;5030970;28;19948;-77
2022/03/06 06:56:54;;;;;;;;;;;;;;;3.83;48.38;101967.03;5029944;28;19933;-77
2022/03/06 06:59:19;;;;;;;;;;;;;;;3.87;48.81;101971.44;5030413;28;19923;-76
2022/03/06 07:01:45;;;;;;;;;;;;;;;3.90;49.52;101969.78;5035429;28;20535;-77
2022/03/06 07:04:10;;;;;;;;;;;;;;;3.83;48.49;101969.59;5028027;28;20554;-76
2022/03/06 07:06:35;;;;;;;;;;;;;;;3.73;48.76;101974.50;5028975;28;19929;-76
2022/03/06 07:09:01;;;;;;;;;;;;;;;3.83;49.11;101973.03;5029997;28;19979;-76
2022/03/06 07:11:26;;;;;;;;;;;;;;;3.73;48.54;101971.94;5024048;28;19921;-79
2022/03/06 07:13:51;;;;;;;;;;;;;;;3.76;49.57;101978.84;5030264;28;19925;-81
2022/03/06 07:16:17;;;;;;;;;;;;;;;3.91;50.15;101989.53;5033273;28;19927;-77
2022/03/06 07:18:42;;;;;;;;;;;;;;;3.97;48.98;101986.22;5044331;28;20010;-77
2022/03/06 07:21:08;;;;;;;;;;;;;;;3.84;49.32;101982.50;5033141;28;19968;-77
2022/03/06 07:23:33;;;;;;;;;;;;;;;3.70;50.29;101984.69;5029300;28;19921;-77
2022/03/06 07:25:59;;;;;;;;;;;;;;;4.10;49.06;102001.19;5027762;28;20388;-77
2022/03/06 07:28:24;;;;;;;;;;;;;;;4.07;49.55;102007.13;5038573;28;19976;-76
2022/03/06 07:30:49;;;;;;;;;;;;;;;4.08;50.22;102008.00;5028502;28;19977;-77
2022/03/06 07:33:15;;;;;;;;;;;;;;;4.29;48.89;101990.50;5028885;28;19925;-77
2022/03/06 07:35:40;;;;;;;;;;;;;;;4.18;49.66;102005.69;5027739;28;19921;-77
2022/03/06 07:38:06;;;;;;;;;;;;;;;4.18;48.74;101999.66;5030704;28;19937;-77
2022/03/06 07:40:31;;;;;;;;;;;;;;;3.98;49.52;102006.84;5027807;28;20012;-77
2022/03/06 07:42:57;;;;;;;;;;;;;;;4.18;49.63;102013.41;5045070;28;20020;-80
2022/03/06 07:45:22;;;;;;;;;;;;;;;4.40;49.55;102001.94;5025419;28;20003;-80
2022/03/06 07:47:48;;;;;;;;;;;;;;;4.25;50.19;102012.72;5028991;28;19928;-80
2022/03/06 07:50:13;;;;;;;;;;;;;;;4.14;50.57;102018.44;5028139;28;19929;-80
2022/03/06 07:52:39;;;;;;;;;;;;;;;4.23;49.86;102010.91;5032696;28;20311;-79
2022/03/06 07:55:04;;;;;;;;;;;;;;;4.27;50.54;102012.75;5028859;28;21170;-80
2022/03/06 07:57:30;;;;;;;;;;;;;;;4.34;49.44;102004.34;5027918;28;20007;-77
2022/03/06 07:59:55;;;;;;;;;;;;;;;4.28;50.61;102012.81;5026745;28;19925;-77
2022/03/06 08:02:21;;;;;;;;;;;;;;;4.38;50.24;102001.00;5026224;28;19925;-77
2022/03/06 08:04:46;;;;;;;;;;;;;;;4.34;50.90;102000.09;5030353;28;19925;-78
2022/03/06 08:07:11;;;;;;;;;;;;;;;4.34;50.50;102002.66;5031767;28;20012;-77
2022/03/06 08:09:37;;;;;;;;;;;;;;;4.43;50.54;102009.72;5030919;28;20390;-77
2022/03/06 08:12:03;;;;;;;;;;;;;;;4.36;50.92;102002.69;5022093;28;19936;-77
2022/03/06 08:14:28;;;;;;;;;;;;;;;4.37;50.36;102004.44;5029568;28;19917;-77
2022/03/06 08:16:54;;;;;;;;;;;;;;;4.01;49.69;102011.19;5029056;28;19917;-77
2022/03/06 08:19:19;;;;;;;;;;;;;;;4.61;47.69;102009.28;5024796;28;19917;-81
2022/03/06 08:21:45;;;;;;;;;;;;;;;4.65;49.00;102013.66;5025986;28;20020;-81
2022/03/06 08:24:10;;;;;;;;;;;;;;;4.71;47.50;102013.78;5021144;28;19921;-80
2022/03/06 08:26:35;;;;;;;;;;;;;;;4.74;49.12;102016.44;5025507;28;19925;-78
2022/03/06 08:29:01;;;;;;;;;;;;;;;4.99;47.41;101999.81;5026631;28;20000;-77
2022/03/06 08:31:26;;;;;;;;;;;;;;;4.89;48.06;102003.91;5023689;28;19960;-77
2022/03/06 08:33:53;;;;;;;;;;;;;;;4.89;48.14;101998.75;5018543;28;21443;-77
2022/03/06 08:36:18;;;;;;;;;;;;;;;4.87;48.84;102000.44;5030069;28;19937;-77
2022/03/06 08:38:44;;;;;;;;;;;;;;;4.92;49.16;102006.53;5031279;28;20286;-77
2022/03/06 08:41:09;;;;;;;;;;;;;;;4.91;49.65;102005.66;5026713;28;19921;-79
2022/03/06 08:43:34;;;;;;;;;;;;;;;4.94;48.66;101998.88;5027214;28;19925;-80
2022/03/06 08:46:00;;;;;;;;;;;;;;;4.85;49.58;101997.81;5027210;28;19921;-80
2022/03/06 08:48:25;;;;;;;;;;;;;;;4.87;49.04;102001.31;5024676;28;20035;-80
2022/03/06 08:50:51;;;;;;;;;;;;;;;5.02;48.33;102005.03;5026919;28;19925;-80
2022/03/06 08:53:16;;;;;;;;;;;;;;;5.15;46.90;102010.47;5044276;28;19925;-80
2022/03/06 08:55:42;;;;;;;;;;;;;;;4.89;48.24;102017.66;5025549;28;20306;-80
2022/03/06 08:58:07;;;;;;;;;;;;;;;4.87;47.96;102015.88;5024043;28;19931;-77
2022/03/06 09:00:32;;;;;;;;;;;;;;;4.90;48.04;102016.81;5026309;28;19928;-77
2022/03/06 09:02:58;;;;;;;;;;;;;;;5.03;45.73;102015.34;5032699;28;19921;-77
2022/03/06 09:05:23;;;;;;;;;;;;;;;4.93;47.35;102021.16;5027426;28;19957;-77
2022/03/06 09:07:49;;;;;;;;;;;;;;;5.20;47.36;102018.31;5029023;28;20083;-77
2022/03/06 09:10:14;;;;;;;;;;;;;;;5.07;47.04;102004.28;5024345;28;20352;-77
2022/03/06 09:12:39;;;;;;;;;;;;;;;5.28;46.63;102017.63;5023018;28;19933;-77
2022/03/06 09:15:06;;;;;;;;;;;;;;;5.38;47.63;102018.69;5027110;28;20444;-77
2022/03/06 09:17:31;;;;;;;;;;;;;;;5.33;47.51;102022.84;5033825;28;19930;-77
2022/03/06 09:19:56;;;;;;;;;;;;;;;5.43;45.74;102014.47;5026011;28;20312;-77
2022/03/06 09:22:23;;;;;;;;;;;;;;;5.45;45.35;102017.94;5029415;28;19921;-79
2022/03/06 09:24:48;;;;;;;;;;;;;;;5.47;46.74;102021.44;5042032;28;19921;-79
2022/03/06 09:27:14;;;;;;;;;;;;;;;5.43;45.76;102025.66;5026695;28;19932;-78
2022/03/06 09:29:39;;;;;;;;;;;;;;;5.33;45.22;102022.84;5023388;28;19991;-79
2022/03/06 09:32:04;;;;;;;;;;;;;;;5.43;44.37;102027.38;5029110;28;20314;-80
2022/03/06 09:34:30;;;;;;;;;;;;;;;5.49;44.10;102027.50;5027193;28;19921;-79
2022/03/06 09:36:55;;;;;;;;;;;;;;;5.67;43.39;102020.13;5044704;28;20374;-78
2022/03/06 09:39:20;;;;;;;;;;;;;;;5.57;43.82;102018.19;5024271;28;19925;-79
2022/03/06 09:41:47;;;;;;;;;;;;;;;5.64;43.96;102030.38;5020183;28;20334;-79
2022/03/06 09:44:13;;;;;;;;;;;;;;;5.53;44.29;102026.72;5031618;28;19979;-79
2022/03/06 09:46:39;;;;;;;;;;;;;;;5.58;41.88;102027.69;5027376;28;19929;-79
2022/03/06 09:49:05;;;;;;;;;;;;;;;5.56;41.45;102024.22;5030163;28;19921;-77
2022/03/06 09:51:34;;;;;;;;;;;;;;;5.69;43.84;102026.16;5032289;28;19928;-79
2022/03/06 09:53:59;;;;;;;;;;;;;;;5.58;43.07;102029.38;5026539;28;19927;-77
2022/03/06 09:56:25;;;;;;;;;;;;;;;5.51;44.13;102023.22;5031985;28;19928;-77
2022/03/06 09:58:50;;;;;;;;;;;;;;;5.58;42.48;102019.06;5032532;28;19925;-78
2022/03/06 10:01:15;;;;;;;;;;;;;;;5.45;42.65;102020.53;5026852;28;20293;-80
2022/03/06 10:03:41;;;;;;;;;;;;;;;5.32;42.48;102018.56;5031802;28;19928;-79
2022/03/06 10:06:07;;;;;;;;;;;;;;;5.42;41.57;102016.19;5030620;28;19920;-79
2022/03/06 10:08:32;;;;;;;;;;;;;;;5.50;43.11;102015.47;5028234;28;19968;-78
2022/03/06 10:10:59;;;;;;;;;;;;;;;5.57;42.74;102023.34;5029025;28;19925;-77
2022/03/06 10:13:25;;;;;;;;;;;;;;;5.56;42.03;102016.47;5031411;28;20103;-78
2022/03/06 10:15:57;;;;;;;;;;;;;;;5.70;43.23;102014.16;5027942;28;20352;-78
2022/03/06 10:18:23;;;;;;;;;;;;;;;5.68;42.46;102021.88;5031820;28;19928;-78
2022/03/06 10:20:48;;;;;;;;;;;;;;;5.70;43.33;102020.19;5029146;28;20470;-79
2022/03/06 10:23:22;;;;;;;;;;;;;;;5.68;41.66;102019.28;5027136;28;19921;-76
2022/03/06 10:25:58;;;;;;;;;;;;;;;5.74;42.07;102010.78;5028318;28;20469;-78
2022/03/06 10:28:24;;;;;;;;;;;;;;;5.98;41.57;102013.78;5034697;28;19952;-76
2022/03/06 10:30:49;;;;;;;;;;;;;;;6.03;42.26;102009.59;5025747;28;19972;-78
2022/03/06 10:33:19;;;;;;;;;;;;;;;6.02;41.13;102007.84;5027713;28;19933;-78
2022/03/06 10:35:45;;;;;;;;;;;;;;;5.95;42.82;102009.44;5028757;28;19921;-79
2022/03/06 10:38:17;;;;;;;;;;;;;;;5.92;43.71;102011.97;5023308;28;19972;-79
2022/03/06 10:40:42;;;;;;;;;;;;;;;6.10;42.19;102008.84;5031334;28;19967;-79
2022/03/06 10:43:24;;;;;;;;;;;;;;;6.09;42.78;102012.28;5024519;28;19953;-80
2022/03/06 10:45:50;;;;;;;;;;;;;;;6.39;43.42;102004.19;5023358;28;19921;-79
2022/03/06 10:48:16;;;;;;;;;;;;;;;6.40;41.59;102003.31;5029081;28;19967;-76
2022/03/06 10:50:42;;;;;;;;;;;;;;;6.60;40.70;101999.38;5029335;28;19925;-76
2022/03/06 10:53:17;;;;;;;;;;;;;;;6.46;40.67;101993.09;5028127;28;19972;-76
2022/03/06 10:55:42;;;;;;;;;;;;;;;6.66;39.28;101988.28;5046969;28;20411;-79
2022/03/06 10:58:08;;;;;;;;;;;;;;;6.61;41.49;101992.47;5029817;28;19921;-79
2022/03/06 11:00:34;;;;;;;;;;;;;;;6.69;40.39;101991.78;5015796;28;19925;-78
2022/03/06 11:03:03;;;;;;;;;;;;;;;6.68;38.75;101982.28;5008471;28;19929;-79
2022/03/06 11:05:28;;;;;;;;;;;;;;;6.71;38.72;101989.19;5010778;28;19929;-80
2022/03/06 11:07:54;;;;;;;;;;;;;;;6.69;39.75;101985.75;5005898;28;19922;-76
2022/03/06 11:10:19;;;;;;;;;;;;;;;6.72;40.22;101981.50;5014031;28;19931;-80
2022/03/06 11:12:45;;;;;;;;;;;;;;;6.83;39.48;101984.22;5010444;28;19948;-80
2022/03/06 11:15:11;;;;;;;;;;;;;;;6.81;39.87;101981.59;5027062;28;19925;-80
2022/03/06 11:17:36;;;;;;;;;;;;;;;6.88;39.71;101975.66;5010764;28;19928;-79
2022/03/06 11:20:02;;;;;;;;;;;;;;;6.85;40.81;101970.47;5014356;28;20726;-77
2022/03/06 11:22:34;;;;;;;;;;;;;;;6.91;39.28;101967.09;5002714;28;19925;-76
2022/03/06 11:25:06;;;;;;;;;;;;;;;6.75;40.12;101976.34;5003553;28;19922;-76
2022/03/06 11:27:43;;;;;;;;;;;;;;;7.01;38.66;101958.63;5005518;28;19937;-78
2022/03/06 11:30:18;;;;;;;;;;;;;;;6.97;36.60;101957.72;5010759;28;19932;-78
2022/03/06 11:32:45;;;;;;;;;;;;;;;7.03;37.72;101962.97;5017481;28;19926;-78
2022/03/06 11:35:12;;;;;;;;;;;;;;;6.99;38.47;101962.88;5009339;28;20024;-79
2022/03/06 11:37:45;;;;;;;;;;;;;;;7.04;38.81;101951.78;5011475;28;19921;-80
2022/03/06 11:40:33;;;;;;;;;;;;;;;6.96;38.08;101953.38;5024735;28;19988;-79
2022/03/06 11:42:58;;;;;;;;;;;;;;;6.91;38.42;101947.28;5006701;28;19928;-80
2022/03/06 11:45:42;;;;;;;;;;;;;;;7.09;39.91;101946.66;5010724;28;19922;-80
2022/03/06 11:48:08;;;;;;;;;;;;;;;7.16;36.18;101943.31;5011985;28;19931;-80
2022/03/06 11:50:33;;;;;;;;;;;;;;;6.82;38.14;101944.59;5008948;28;20290;-80
2022/03/06 11:52:58;;;;;;;;;;;;;;;6.86;35.98;101936.06;5015935;28;19937;-80
2022/03/06 11:55:33;;;;;;;;;;;;;;;6.76;36.46;101947.09;5009894;28;19967;-80
2022/03/06 11:57:59;;;;;;;;;;;;;;;6.98;36.68;101941.38;5002700;28;19921;-76
2022/03/06 12:00:30;;;;;;;;;;;;;;;6.79;37.47;101931.66;5005531;28;19980;-79
2022/03/06 12:02:57;;;;;;;;;;;;;;;7.00;36.55;101934.50;5002944;28;20288;-76
2022/03/06 12:05:43;;;;;;;;;;;;;;;7.06;37.39;101933.69;5004332;28;20569;-80
2022/03/06 12:08:10;;;;;;;;;;;;;;;7.08;37.02;101935.44;5009385;28;20039;-78
2022/03/06 12:10:35;;;;;;;;;;;;;;;7.02;36.25;101919.00;5005668;28;20420;-80
2022/03/06 12:13:00;;;;;;;;;;;;;;;7.12;36.46;101926.03;5007818;28;19929;-80
2022/03/06 12:15:27;;;;;;;;;;;;;;;7.02;35.68;101919.00;5010693;28;19925;-80
2022/03/06 12:17:52;;;;;;;;;;;;;;;7.18;35.42;101918.34;5009528;28;19930;-79
2022/03/06 12:20:27;;;;;;;;;;;;;;;7.15;38.08;101913.13;5009669;28;19944;-75
2022/03/06 12:22:54;;;;;;;;;;;;;;;7.11;37.82;101919.09;5010120;28;19972;-76
2022/03/06 12:25:21;;;;;;;;;;;;;;;7.19;38.19;101914.03;5009973;28;20016;-75
2022/03/06 12:28:05;;;;;;;;;;;;;;;7.26;38.04;101921.00;5017749;28;19925;-78
2022/03/06 12:30:32;;;;;;;;;;;;;;;7.25;35.82;101919.28;5005760;28;20035;-79
2022/03/06 12:32:57;;;;;;;;;;;;;;;7.40;36.18;101922.03;5006401;28;19929;-80
2022/03/06 12:35:25;;;;;;;;;;;;;;;7.45;37.84;101920.34;5008879;28;19991;-80
2022/03/06 12:38:00;;;;;;;;;;;;;;;7.38;38.12;101921.13;5008524;28;19972;-80
2022/03/06 12:40:29;;;;;;;;;;;;;;;7.42;36.92;101910.84;5009628;28;19921;-78
2022/03/06 12:42:59;;;;;;;;;;;;;;;7.54;36.71;101908.38;5006659;28;20016;-78